sensor_id;sensor_type;location;lat;lon;timestamp;P1;durP1;ratioP1;P2;durP2;ratioP2
55465;SDS011;41329;41.594;23.810;2023-05-07T00:01:05;11.53;;;10.47;;
55465;SDS011;41329;41.594;23.810;2023-05-07T00:03:31;16.47;;;14.70;;
55465;SDS011;41329;41.594;23.810;2023-05-07T00:05:57;18.10;;;15.03;;
55465;SDS011;41329;41.594;23.810;2023-05-07T00:08:22;12.47;;;11.47;;
55465;SDS011;41329;41.594;23.810;2023-05-07T00:10:48;11.97;;;8.17;;
55465;SDS011;41329;41.594;23.810;2023-05-07T00:13:13;9.57;;;8.67;;
55465;SDS011;41329;41.594;23.810;2023-05-07T00:15:39;12.63;;;11.73;;
55465;SDS011;41329;41.594;23.810;2023-05-07T00:18:05;9.53;;;8.87;;
55465;SDS011;41329;41.594;23.810;2023-05-07T00:20:30;7.93;;;7.43;;
55465;SDS011;41329;41.594;23.810;2023-05-07T00:22:56;7.07;;;6.57;;
55465;SDS011;41329;41.594;23.810;2023-05-07T00:25:21;6.40;;;6.00;;
55465;SDS011;41329;41.594;23.810;2023-05-07T00:27:47;5.20;;;4.80;;
55465;SDS011;41329;41.594;23.810;2023-05-07T00:30:12;4.77;;;4.37;;
55465;SDS011;41329;41.594;23.810;2023-05-07T00:32:38;4.97;;;4.67;;
55465;SDS011;41329;41.594;23.810;2023-05-07T00:35:04;6.67;;;5.33;;
55465;SDS011;41329;41.594;23.810;2023-05-07T00:37:30;5.10;;;4.70;;
55465;SDS011;41329;41.594;23.810;2023-05-07T00:39:56;5.00;;;4.60;;
55465;SDS011;41329;41.594;23.810;2023-05-07T00:42:21;4.50;;;3.47;;
55465;SDS011;41329;41.594;23.810;2023-05-07T00:44:47;4.50;;;4.20;;
55465;SDS011;41329;41.594;23.810;2023-05-07T00:47:12;5.20;;;4.90;;
55465;SDS011;41329;41.594;23.810;2023-05-07T00:49:42;5.53;;;5.13;;
55465;SDS011;41329;41.594;23.810;2023-05-07T00:52:09;6.63;;;6.03;;
55465;SDS011;41329;41.594;23.810;2023-05-07T00:54:38;5.87;;;5.47;;
55465;SDS011;41329;41.594;23.810;2023-05-07T00:57:05;5.30;;;4.83;;
55465;SDS011;41329;41.594;23.810;2023-05-07T00:59:31;5.60;;;5.20;;
55465;SDS011;41329;41.594;23.810;2023-05-07T01:01:58;4.50;;;4.20;;
55465;SDS011;41329;41.594;23.810;2023-05-07T01:04:24;6.10;;;5.70;;
55465;SDS011;41329;41.594;23.810;2023-05-07T01:06:50;5.57;;;5.27;;
55465;SDS011;41329;41.594;23.810;2023-05-07T01:09:16;5.90;;;5.40;;
55465;SDS011;41329;41.594;23.810;2023-05-07T01:11:42;6.17;;;5.67;;
55465;SDS011;41329;41.594;23.810;2023-05-07T01:14:08;6.07;;;5.57;;
55465;SDS011;41329;41.594;23.810;2023-05-07T01:16:34;6.33;;;5.90;;
55465;SDS011;41329;41.594;23.810;2023-05-07T01:19:00;6.30;;;5.80;;
55465;SDS011;41329;41.594;23.810;2023-05-07T01:21:26;6.30;;;5.80;;
55465;SDS011;41329;41.594;23.810;2023-05-07T01:23:51;5.70;;;5.17;;
55465;SDS011;41329;41.594;23.810;2023-05-07T01:26:18;6.97;;;4.83;;
55465;SDS011;41329;41.594;23.810;2023-05-07T01:28:44;4.23;;;3.93;;
55465;SDS011;41329;41.594;23.810;2023-05-07T01:31:10;4.33;;;4.00;;
55465;SDS011;41329;41.594;23.810;2023-05-07T01:33:38;3.60;;;3.40;;
55465;SDS011;41329;41.594;23.810;2023-05-07T01:36:06;3.77;;;3.57;;
55465;SDS011;41329;41.594;23.810;2023-05-07T01:38:33;4.07;;;3.20;;
55465;SDS011;41329;41.594;23.810;2023-05-07T01:41:01;4.00;;;3.47;;
55465;SDS011;41329;41.594;23.810;2023-05-07T01:43:27;3.77;;;3.53;;
55465;SDS011;41329;41.594;23.810;2023-05-07T01:45:54;4.50;;;3.90;;
55465;SDS011;41329;41.594;23.810;2023-05-07T01:48:21;3.50;;;3.30;;
55465;SDS011;41329;41.594;23.810;2023-05-07T01:50:47;4.27;;;3.20;;
55465;SDS011;41329;41.594;23.810;2023-05-07T01:53:12;3.33;;;3.13;;
55465;SDS011;41329;41.594;23.810;2023-05-07T01:55:38;4.00;;;3.70;;
55465;SDS011;41329;41.594;23.810;2023-05-07T01:58:05;6.13;;;3.60;;
55465;SDS011;41329;41.594;23.810;2023-05-07T02:00:30;3.80;;;3.60;;
55465;SDS011;41329;41.594;23.810;2023-05-07T02:02:56;3.80;;;3.50;;
55465;SDS011;41329;41.594;23.810;2023-05-07T02:05:22;4.30;;;4.00;;
55465;SDS011;41329;41.594;23.810;2023-05-07T02:07:48;4.10;;;3.90;;
55465;SDS011;41329;41.594;23.810;2023-05-07T02:10:13;5.47;;;5.13;;
55465;SDS011;41329;41.594;23.810;2023-05-07T02:12:39;6.60;;;6.20;;
55465;SDS011;41329;41.594;23.810;2023-05-07T02:15:04;6.10;;;5.70;;
55465;SDS011;41329;41.594;23.810;2023-05-07T02:17:30;5.03;;;4.73;;
55465;SDS011;41329;41.594;23.810;2023-05-07T02:19:57;5.43;;;4.77;;
55465;SDS011;41329;41.594;23.810;2023-05-07T02:22:23;5.43;;;5.03;;
55465;SDS011;41329;41.594;23.810;2023-05-07T02:24:49;5.60;;;5.17;;
55465;SDS011;41329;41.594;23.810;2023-05-07T02:27:14;5.90;;;5.47;;
55465;SDS011;41329;41.594;23.810;2023-05-07T02:29:39;6.20;;;5.80;;
55465;SDS011;41329;41.594;23.810;2023-05-07T02:32:05;5.67;;;5.17;;
55465;SDS011;41329;41.594;23.810;2023-05-07T02:34:30;10.60;;;6.13;;
55465;SDS011;41329;41.594;23.810;2023-05-07T02:36:56;6.47;;;5.97;;
55465;SDS011;41329;41.594;23.810;2023-05-07T02:39:21;5.17;;;4.77;;
55465;SDS011;41329;41.594;23.810;2023-05-07T02:41:47;5.30;;;5.00;;
55465;SDS011;41329;41.594;23.810;2023-05-07T02:44:12;4.90;;;4.50;;
55465;SDS011;41329;41.594;23.810;2023-05-07T02:46:37;5.77;;;5.37;;
55465;SDS011;41329;41.594;23.810;2023-05-07T02:49:03;5.17;;;4.87;;
55465;SDS011;41329;41.594;23.810;2023-05-07T02:51:29;5.33;;;5.03;;
55465;SDS011;41329;41.594;23.810;2023-05-07T02:53:55;5.30;;;4.90;;
55465;SDS011;41329;41.594;23.810;2023-05-07T02:56:21;4.57;;;4.27;;
55465;SDS011;41329;41.594;23.810;2023-05-07T02:58:46;4.43;;;4.10;;
55465;SDS011;41329;41.594;23.810;2023-05-07T03:01:12;4.13;;;3.83;;
55465;SDS011;41329;41.594;23.810;2023-05-07T03:03:38;5.03;;;4.73;;
55465;SDS011;41329;41.594;23.810;2023-05-07T03:06:04;8.30;;;4.67;;
55465;SDS011;41329;41.594;23.810;2023-05-07T03:08:30;4.80;;;4.50;;
55465;SDS011;41329;41.594;23.810;2023-05-07T03:10:55;5.67;;;5.27;;
55465;SDS011;41329;41.594;23.810;2023-05-07T03:13:21;6.67;;;6.03;;
55465;SDS011;41329;41.594;23.810;2023-05-07T03:15:46;8.97;;;8.27;;
55465;SDS011;41329;41.594;23.810;2023-05-07T03:18:12;6.40;;;5.67;;
55465;SDS011;41329;41.594;23.810;2023-05-07T03:20:37;6.00;;;5.60;;
55465;SDS011;41329;41.594;23.810;2023-05-07T03:23:03;6.50;;;6.07;;
55465;SDS011;41329;41.594;23.810;2023-05-07T03:25:28;6.43;;;5.67;;
55465;SDS011;41329;41.594;23.810;2023-05-07T03:27:56;6.73;;;6.23;;
55465;SDS011;41329;41.594;23.810;2023-05-07T03:30:22;5.97;;;5.57;;
55465;SDS011;41329;41.594;23.810;2023-05-07T03:32:47;7.03;;;6.53;;
55465;SDS011;41329;41.594;23.810;2023-05-07T03:35:13;6.83;;;6.37;;
55465;SDS011;41329;41.594;23.810;2023-05-07T03:37:38;6.90;;;6.50;;
55465;SDS011;41329;41.594;23.810;2023-05-07T03:40:04;7.53;;;6.93;;
55465;SDS011;41329;41.594;23.810;2023-05-07T03:42:30;7.90;;;7.30;;
55465;SDS011;41329;41.594;23.810;2023-05-07T03:44:56;8.47;;;7.77;;
55465;SDS011;41329;41.594;23.810;2023-05-07T03:47:21;7.40;;;6.90;;
55465;SDS011;41329;41.594;23.810;2023-05-07T03:49:47;8.30;;;7.57;;
55465;SDS011;41329;41.594;23.810;2023-05-07T03:52:13;7.13;;;6.53;;
55465;SDS011;41329;41.594;23.810;2023-05-07T03:54:39;7.00;;;6.50;;
55465;SDS011;41329;41.594;23.810;2023-05-07T03:57:05;7.40;;;6.93;;
55465;SDS011;41329;41.594;23.810;2023-05-07T03:59:30;7.10;;;6.50;;
55465;SDS011;41329;41.594;23.810;2023-05-07T04:01:55;7.17;;;6.60;;
55465;SDS011;41329;41.594;23.810;2023-05-07T04:04:21;6.43;;;6.03;;
55465;SDS011;41329;41.594;23.810;2023-05-07T04:06:46;7.67;;;7.17;;
55465;SDS011;41329;41.594;23.810;2023-05-07T04:09:12;8.00;;;7.40;;
55465;SDS011;41329;41.594;23.810;2023-05-07T04:11:37;7.33;;;6.83;;
55465;SDS011;41329;41.594;23.810;2023-05-07T04:14:05;7.83;;;7.23;;
55465;SDS011;41329;41.594;23.810;2023-05-07T04:16:30;7.33;;;6.80;;
55465;SDS011;41329;41.594;23.810;2023-05-07T04:18:55;8.00;;;7.50;;
55465;SDS011;41329;41.594;23.810;2023-05-07T04:21:21;8.20;;;7.47;;
55465;SDS011;41329;41.594;23.810;2023-05-07T04:23:47;7.53;;;7.03;;
55465;SDS011;41329;41.594;23.810;2023-05-07T04:26:13;8.03;;;7.40;;
55465;SDS011;41329;41.594;23.810;2023-05-07T04:28:38;7.00;;;6.60;;
55465;SDS011;41329;41.594;23.810;2023-05-07T04:31:04;7.90;;;7.40;;
55465;SDS011;41329;41.594;23.810;2023-05-07T04:33:30;7.50;;;6.97;;
55465;SDS011;41329;41.594;23.810;2023-05-07T04:35:56;7.07;;;6.50;;
55465;SDS011;41329;41.594;23.810;2023-05-07T04:38:21;6.77;;;6.27;;
55465;SDS011;41329;41.594;23.810;2023-05-07T04:40:48;7.43;;;6.87;;
55465;SDS011;41329;41.594;23.810;2023-05-07T04:43:14;7.40;;;6.90;;
55465;SDS011;41329;41.594;23.810;2023-05-07T04:45:39;6.73;;;6.33;;
55465;SDS011;41329;41.594;23.810;2023-05-07T04:48:06;6.77;;;6.37;;
55465;SDS011;41329;41.594;23.810;2023-05-07T04:50:32;6.80;;;6.40;;
55465;SDS011;41329;41.594;23.810;2023-05-07T04:52:57;8.10;;;7.50;;
55465;SDS011;41329;41.594;23.810;2023-05-07T04:55:23;7.50;;;7.10;;
55465;SDS011;41329;41.594;23.810;2023-05-07T04:57:48;8.40;;;7.47;;
55465;SDS011;41329;41.594;23.810;2023-05-07T05:00:14;8.77;;;8.17;;
55465;SDS011;41329;41.594;23.810;2023-05-07T05:02:41;8.57;;;8.07;;
55465;SDS011;41329;41.594;23.810;2023-05-07T05:05:07;8.73;;;8.03;;
55465;SDS011;41329;41.594;23.810;2023-05-07T05:07:32;70.90;;;41.77;;
55465;SDS011;41329;41.594;23.810;2023-05-07T05:09:58;108.03;;;57.30;;
55465;SDS011;41329;41.594;23.810;2023-05-07T05:12:24;56.13;;;34.93;;
55465;SDS011;41329;41.594;23.810;2023-05-07T05:14:49;42.87;;;30.03;;
55465;SDS011;41329;41.594;23.810;2023-05-07T05:17:15;8.63;;;7.93;;
55465;SDS011;41329;41.594;23.810;2023-05-07T05:19:40;6.40;;;6.10;;
55465;SDS011;41329;41.594;23.810;2023-05-07T05:22:06;7.33;;;6.83;;
55465;SDS011;41329;41.594;23.810;2023-05-07T05:24:31;6.87;;;6.27;;
55465;SDS011;41329;41.594;23.810;2023-05-07T05:26:56;7.07;;;6.57;;
55465;SDS011;41329;41.594;23.810;2023-05-07T05:29:22;6.93;;;6.43;;
55465;SDS011;41329;41.594;23.810;2023-05-07T05:31:47;7.83;;;7.27;;
55465;SDS011;41329;41.594;23.810;2023-05-07T05:34:13;9.10;;;8.50;;
55465;SDS011;41329;41.594;23.810;2023-05-07T05:36:38;9.33;;;8.73;;
55465;SDS011;41329;41.594;23.810;2023-05-07T05:39:04;8.97;;;8.27;;
55465;SDS011;41329;41.594;23.810;2023-05-07T05:41:30;11.73;;;10.70;;
55465;SDS011;41329;41.594;23.810;2023-05-07T05:43:56;13.77;;;12.53;;
55465;SDS011;41329;41.594;23.810;2023-05-07T05:46:21;11.93;;;11.23;;
55465;SDS011;41329;41.594;23.810;2023-05-07T05:48:47;11.90;;;10.90;;
55465;SDS011;41329;41.594;23.810;2023-05-07T05:51:12;13.10;;;12.10;;
55465;SDS011;41329;41.594;23.810;2023-05-07T05:53:37;10.53;;;9.60;;
55465;SDS011;41329;41.594;23.810;2023-05-07T05:56:03;9.67;;;9.07;;
55465;SDS011;41329;41.594;23.810;2023-05-07T05:58:29;11.17;;;10.37;;
55465;SDS011;41329;41.594;23.810;2023-05-07T06:00:55;8.93;;;8.17;;
55465;SDS011;41329;41.594;23.810;2023-05-07T06:03:21;8.77;;;8.17;;
55465;SDS011;41329;41.594;23.810;2023-05-07T06:05:47;7.70;;;7.20;;
55465;SDS011;41329;41.594;23.810;2023-05-07T06:08:12;9.53;;;8.60;;
55465;SDS011;41329;41.594;23.810;2023-05-07T06:10:38;18.70;;;17.27;;
55465;SDS011;41329;41.594;23.810;2023-05-07T06:13:04;32.33;;;29.60;;
55465;SDS011;41329;41.594;23.810;2023-05-07T06:15:30;29.20;;;26.80;;
55465;SDS011;41329;41.594;23.810;2023-05-07T06:17:55;17.20;;;15.73;;
55465;SDS011;41329;41.594;23.810;2023-05-07T06:20:22;12.70;;;11.77;;
55465;SDS011;41329;41.594;23.810;2023-05-07T06:22:48;13.57;;;10.77;;
55465;SDS011;41329;41.594;23.810;2023-05-07T06:25:13;11.57;;;10.43;;
55465;SDS011;41329;41.594;23.810;2023-05-07T06:27:39;9.33;;;8.67;;
55465;SDS011;41329;41.594;23.810;2023-05-07T06:30:04;7.87;;;7.47;;
55465;SDS011;41329;41.594;23.810;2023-05-07T06:32:31;8.27;;;7.57;;
55465;SDS011;41329;41.594;23.810;2023-05-07T06:34:56;8.57;;;7.97;;
55465;SDS011;41329;41.594;23.810;2023-05-07T06:37:21;8.07;;;7.40;;
55465;SDS011;41329;41.594;23.810;2023-05-07T06:39:47;10.90;;;8.67;;
55465;SDS011;41329;41.594;23.810;2023-05-07T06:42:12;8.07;;;7.50;;
55465;SDS011;41329;41.594;23.810;2023-05-07T06:44:38;7.15;;;6.70;;
55465;SDS011;41329;41.594;23.810;2023-05-07T06:47:03;8.68;;;7.57;;
55465;SDS011;41329;41.594;23.810;2023-05-07T06:49:30;7.60;;;6.90;;
55465;SDS011;41329;41.594;23.810;2023-05-07T06:51:56;7.20;;;6.18;;
55465;SDS011;41329;41.594;23.810;2023-05-07T06:54:22;6.63;;;6.10;;
55465;SDS011;41329;41.594;23.810;2023-05-07T06:56:47;5.72;;;5.20;;
55465;SDS011;41329;41.594;23.810;2023-05-07T06:59:12;5.47;;;5.03;;
55465;SDS011;41329;41.594;23.810;2023-05-07T07:01:38;5.57;;;5.28;;
55465;SDS011;41329;41.594;23.810;2023-05-07T07:04:03;6.35;;;5.95;;
55465;SDS011;41329;41.594;23.810;2023-05-07T07:06:29;9.07;;;8.45;;
55465;SDS011;41329;41.594;23.810;2023-05-07T07:08:56;5.90;;;4.72;;
55465;SDS011;41329;41.594;23.810;2023-05-07T07:11:22;5.28;;;4.97;;
55465;SDS011;41329;41.594;23.810;2023-05-07T07:13:48;8.05;;;5.22;;
55465;SDS011;41329;41.594;23.810;2023-05-07T07:16:13;5.55;;;5.05;;
55465;SDS011;41329;41.594;23.810;2023-05-07T07:18:39;6.00;;;4.68;;
55465;SDS011;41329;41.594;23.810;2023-05-07T07:21:04;4.65;;;4.35;;
55465;SDS011;41329;41.594;23.810;2023-05-07T07:23:30;4.15;;;3.85;;
55465;SDS011;41329;41.594;23.810;2023-05-07T07:25:55;4.65;;;4.35;;
55465;SDS011;41329;41.594;23.810;2023-05-07T07:28:21;5.25;;;4.75;;
55465;SDS011;41329;41.594;23.810;2023-05-07T07:30:46;6.45;;;4.63;;
55465;SDS011;41329;41.594;23.810;2023-05-07T07:33:12;8.98;;;8.27;;
55465;SDS011;41329;41.594;23.810;2023-05-07T07:35:37;6.60;;;4.13;;
55465;SDS011;41329;41.594;23.810;2023-05-07T07:38:03;4.20;;;3.80;;
55465;SDS011;41329;41.594;23.810;2023-05-07T07:40:28;12.68;;;11.77;;
55465;SDS011;41329;41.594;23.810;2023-05-07T07:42:54;7.43;;;5.85;;
55465;SDS011;41329;41.594;23.810;2023-05-07T07:45:19;5.20;;;4.80;;
55465;SDS011;41329;41.594;23.810;2023-05-07T07:47:45;4.22;;;3.92;;
55465;SDS011;41329;41.594;23.810;2023-05-07T07:50:11;4.65;;;4.10;;
55465;SDS011;41329;41.594;23.810;2023-05-07T07:52:36;6.30;;;4.85;;
55465;SDS011;41329;41.594;23.810;2023-05-07T07:55:02;6.45;;;4.07;;
55465;SDS011;41329;41.594;23.810;2023-05-07T07:57:28;4.38;;;3.97;;
55465;SDS011;41329;41.594;23.810;2023-05-07T07:59:53;5.78;;;4.63;;
55465;SDS011;41329;41.594;23.810;2023-05-07T08:02:19;3.58;;;3.30;;
55465;SDS011;41329;41.594;23.810;2023-05-07T08:04:45;19.88;;;18.33;;
55465;SDS011;41329;41.594;23.810;2023-05-07T08:07:11;10.50;;;9.80;;
55465;SDS011;41329;41.594;23.810;2023-05-07T08:09:36;4.70;;;4.40;;
55465;SDS011;41329;41.594;23.810;2023-05-07T08:12:03;4.32;;;3.90;;
55465;SDS011;41329;41.594;23.810;2023-05-07T08:14:29;5.60;;;5.10;;
55465;SDS011;41329;41.594;23.810;2023-05-07T08:16:54;8.05;;;4.97;;
55465;SDS011;41329;41.594;23.810;2023-05-07T08:19:20;5.70;;;4.35;;
55465;SDS011;41329;41.594;23.810;2023-05-07T08:21:46;11.77;;;4.30;;
55465;SDS011;41329;41.594;23.810;2023-05-07T08:24:13;8.00;;;7.30;;
55465;SDS011;41329;41.594;23.810;2023-05-07T08:26:39;18.40;;;16.63;;
55465;SDS011;41329;41.594;23.810;2023-05-07T08:29:05;5.25;;;3.60;;
55465;SDS011;41329;41.594;23.810;2023-05-07T08:31:30;3.88;;;3.63;;
55465;SDS011;41329;41.594;23.810;2023-05-07T08:33:56;4.47;;;4.07;;
55465;SDS011;41329;41.594;23.810;2023-05-07T08:36:22;7.15;;;4.95;;
55465;SDS011;41329;41.594;23.810;2023-05-07T08:38:48;5.10;;;4.13;;
55465;SDS011;41329;41.594;23.810;2023-05-07T08:41:14;5.57;;;4.15;;
55465;SDS011;41329;41.594;23.810;2023-05-07T08:43:40;4.25;;;2.95;;
55465;SDS011;41329;41.594;23.810;2023-05-07T08:46:07;3.78;;;3.50;;
55465;SDS011;41329;41.594;23.810;2023-05-07T08:48:34;3.53;;;3.22;;
55465;SDS011;41329;41.594;23.810;2023-05-07T08:51:00;3.20;;;2.40;;
55465;SDS011;41329;41.594;23.810;2023-05-07T08:53:26;7.80;;;4.20;;
55465;SDS011;41329;41.594;23.810;2023-05-07T08:55:52;4.47;;;4.18;;
55465;SDS011;41329;41.594;23.810;2023-05-07T08:58:18;4.03;;;3.65;;
55465;SDS011;41329;41.594;23.810;2023-05-07T09:00:43;3.28;;;2.42;;
55465;SDS011;41329;41.594;23.810;2023-05-07T09:03:08;2.50;;;2.40;;
55465;SDS011;41329;41.594;23.810;2023-05-07T09:05:37;3.95;;;2.78;;
55465;SDS011;41329;41.594;23.810;2023-05-07T09:08:03;3.45;;;2.78;;
55465;SDS011;41329;41.594;23.810;2023-05-07T09:10:29;6.93;;;2.85;;
55465;SDS011;41329;41.594;23.810;2023-05-07T09:12:54;3.25;;;3.05;;
55465;SDS011;41329;41.594;23.810;2023-05-07T09:15:20;7.93;;;7.38;;
55465;SDS011;41329;41.594;23.810;2023-05-07T09:17:46;5.25;;;4.88;;
55465;SDS011;41329;41.594;23.810;2023-05-07T09:20:11;4.63;;;4.25;;
55465;SDS011;41329;41.594;23.810;2023-05-07T09:22:37;3.30;;;3.00;;
55465;SDS011;41329;41.594;23.810;2023-05-07T09:25:03;3.08;;;2.78;;
55465;SDS011;41329;41.594;23.810;2023-05-07T09:27:30;8.30;;;7.80;;
55465;SDS011;41329;41.594;23.810;2023-05-07T09:29:55;2.05;;;1.95;;
55465;SDS011;41329;41.594;23.810;2023-05-07T09:32:21;3.00;;;2.80;;
55465;SDS011;41329;41.594;23.810;2023-05-07T09:34:46;1.98;;;1.88;;
55465;SDS011;41329;41.594;23.810;2023-05-07T09:37:12;2.63;;;2.42;;
55465;SDS011;41329;41.594;23.810;2023-05-07T09:39:43;10.45;;;9.68;;
55465;SDS011;41329;41.594;23.810;2023-05-07T09:42:12;2.65;;;2.45;;
55465;SDS011;41329;41.594;23.810;2023-05-07T09:44:40;2.28;;;2.08;;
55465;SDS011;41329;41.594;23.810;2023-05-07T09:47:06;2.20;;;1.92;;
55465;SDS011;41329;41.594;23.810;2023-05-07T09:49:36;2.28;;;2.17;;
55465;SDS011;41329;41.594;23.810;2023-05-07T09:52:03;13.90;;;12.63;;
55465;SDS011;41329;41.594;23.810;2023-05-07T09:54:31;2.40;;;1.88;;
55465;SDS011;41329;41.594;23.810;2023-05-07T09:56:58;2.28;;;2.17;;
55465;SDS011;41329;41.594;23.810;2023-05-07T09:59:27;11.07;;;10.38;;
55465;SDS011;41329;41.594;23.810;2023-05-07T10:01:55;2.75;;;1.90;;
55465;SDS011;41329;41.594;23.810;2023-05-07T10:04:24;19.27;;;3.42;;
55465;SDS011;41329;41.594;23.810;2023-05-07T10:06:51;9.60;;;3.10;;
55465;SDS011;41329;41.594;23.810;2023-05-07T10:09:18;2.33;;;2.13;;
55465;SDS011;41329;41.594;23.810;2023-05-07T10:11:44;4.65;;;3.38;;
55465;SDS011;41329;41.594;23.810;2023-05-07T10:14:10;1.80;;;1.70;;
55465;SDS011;41329;41.594;23.810;2023-05-07T10:16:36;111.47;;;9.40;;
55465;SDS011;41329;41.594;23.810;2023-05-07T10:19:03;3.53;;;2.60;;
55465;SDS011;41329;41.594;23.810;2023-05-07T10:21:30;1.70;;;1.60;;
55465;SDS011;41329;41.594;23.810;2023-05-07T10:24:03;3.50;;;3.25;;
55465;SDS011;41329;41.594;23.810;2023-05-07T10:26:31;3.72;;;1.52;;
55465;SDS011;41329;41.594;23.810;2023-05-07T10:29:02;1.70;;;1.60;;
55465;SDS011;41329;41.594;23.810;2023-05-07T10:31:43;1.52;;;1.40;;
55465;SDS011;41329;41.594;23.810;2023-05-07T10:34:20;2.22;;;1.70;;
55465;SDS011;41329;41.594;23.810;2023-05-07T10:36:48;2.65;;;1.50;;
55465;SDS011;41329;41.594;23.810;2023-05-07T10:39:15;7.35;;;1.58;;
55465;SDS011;41329;41.594;23.810;2023-05-07T10:41:41;5.10;;;4.20;;
55465;SDS011;41329;41.594;23.810;2023-05-07T10:44:06;2.58;;;1.20;;
55465;SDS011;41329;41.594;23.810;2023-05-07T10:46:32;18.13;;;16.60;;
55465;SDS011;41329;41.594;23.810;2023-05-07T10:51:25;2.13;;;1.45;;
55465;SDS011;41329;41.594;23.810;2023-05-07T10:54:34;1.40;;;1.30;;
55465;SDS011;41329;41.594;23.810;2023-05-07T10:56:44;1.42;;;1.33;;
55465;SDS011;41329;41.594;23.810;2023-05-07T11:04:18;2.67;;;1.20;;
55465;SDS011;41329;41.594;23.810;2023-05-07T11:12:17;2.08;;;1.35;;
55465;SDS011;41329;41.594;23.810;2023-05-07T11:15:04;2.85;;;1.42;;
55465;SDS011;41329;41.594;23.810;2023-05-07T11:17:34;100.63;;;7.18;;
55465;SDS011;41329;41.594;23.810;2023-05-07T11:20:01;3.47;;;1.55;;
55465;SDS011;41329;41.594;23.810;2023-05-07T11:24:55;1.25;;;1.02;;
55465;SDS011;41329;41.594;23.810;2023-05-07T11:27:25;2.92;;;1.30;;
55465;SDS011;41329;41.594;23.810;2023-05-07T11:29:51;4.10;;;1.30;;
55465;SDS011;41329;41.594;23.810;2023-05-07T11:32:22;4.25;;;1.40;;
55465;SDS011;41329;41.594;23.810;2023-05-07T11:34:51;2.28;;;1.30;;
55465;SDS011;41329;41.594;23.810;2023-05-07T11:37:17;1.20;;;1.10;;
55465;SDS011;41329;41.594;23.810;2023-05-07T11:39:43;1.38;;;1.27;;
55465;SDS011;41329;41.594;23.810;2023-05-07T11:42:25;1.58;;;1.48;;
55465;SDS011;41329;41.594;23.810;2023-05-07T11:44:51;1.65;;;1.40;;
55465;SDS011;41329;41.594;23.810;2023-05-07T11:47:17;1.33;;;1.23;;
55465;SDS011;41329;41.594;23.810;2023-05-07T11:49:45;4.00;;;1.20;;
55465;SDS011;41329;41.594;23.810;2023-05-07T11:52:15;1.38;;;1.10;;
55465;SDS011;41329;41.594;23.810;2023-05-07T11:54:41;3.08;;;1.27;;
55465;SDS011;41329;41.594;23.810;2023-05-07T11:57:16;1.17;;;1.10;;
55465;SDS011;41329;41.594;23.810;2023-05-07T11:59:42;1.35;;;1.25;;
55465;SDS011;41329;41.594;23.810;2023-05-07T12:02:09;1.83;;;1.20;;
55465;SDS011;41329;41.594;23.810;2023-05-07T12:04:35;1.52;;;0.98;;
55465;SDS011;41329;41.594;23.810;2023-05-07T12:07:01;1.98;;;1.25;;
55465;SDS011;41329;41.594;23.810;2023-05-07T12:09:26;2.42;;;1.48;;
55465;SDS011;41329;41.594;23.810;2023-05-07T12:11:52;1.50;;;1.40;;
55465;SDS011;41329;41.594;23.810;2023-05-07T12:14:18;1.52;;;1.20;;
55465;SDS011;41329;41.594;23.810;2023-05-07T12:16:43;1.35;;;0.95;;
55465;SDS011;41329;41.594;23.810;2023-05-07T12:19:10;1.95;;;1.33;;
55465;SDS011;41329;41.594;23.810;2023-05-07T12:21:37;1.30;;;1.20;;
55465;SDS011;41329;41.594;23.810;2023-05-07T12:24:04;2.03;;;1.50;;
55465;SDS011;41329;41.594;23.810;2023-05-07T12:26:30;3.47;;;1.63;;
55465;SDS011;41329;41.594;23.810;2023-05-07T12:28:57;8.20;;;1.95;;
55465;SDS011;41329;41.594;23.810;2023-05-07T12:31:22;1.80;;;1.58;;
55465;SDS011;41329;41.594;23.810;2023-05-07T12:33:51;1.98;;;1.50;;
55465;SDS011;41329;41.594;23.810;2023-05-07T12:36:16;1.38;;;1.27;;
55465;SDS011;41329;41.594;23.810;2023-05-07T12:38:41;3.38;;;1.73;;
55465;SDS011;41329;41.594;23.810;2023-05-07T12:41:08;1.27;;;1.10;;
55465;SDS011;41329;41.594;23.810;2023-05-07T12:43:35;5.07;;;1.77;;
55465;SDS011;41329;41.594;23.810;2023-05-07T12:46:03;2.03;;;1.42;;
55465;SDS011;41329;41.594;23.810;2023-05-07T12:48:29;3.03;;;1.58;;
55465;SDS011;41329;41.594;23.810;2023-05-07T12:50:55;2.25;;;2.05;;
55465;SDS011;41329;41.594;23.810;2023-05-07T12:53:23;1.70;;;1.60;;
55465;SDS011;41329;41.594;23.810;2023-05-07T12:55:53;1.50;;;1.38;;
55465;SDS011;41329;41.594;23.810;2023-05-07T12:58:30;2.05;;;1.40;;
55465;SDS011;41329;41.594;23.810;2023-05-07T13:00:58;2.03;;;1.60;;
55465;SDS011;41329;41.594;23.810;2023-05-07T13:05:51;2.40;;;1.80;;
55465;SDS011;41329;41.594;23.810;2023-05-07T13:08:50;19.17;;;3.53;;
55465;SDS011;41329;41.594;23.810;2023-05-07T13:11:08;1.52;;;1.23;;
55465;SDS011;41329;41.594;23.810;2023-05-07T13:13:35;1.55;;;1.45;;
55465;SDS011;41329;41.594;23.810;2023-05-07T13:16:02;1.50;;;1.40;;
55465;SDS011;41329;41.594;23.810;2023-05-07T13:18:29;1.77;;;1.67;;
55465;SDS011;41329;41.594;23.810;2023-05-07T13:20:55;1.40;;;1.30;;
55465;SDS011;41329;41.594;23.810;2023-05-07T13:23:21;8.57;;;1.83;;
55465;SDS011;41329;41.594;23.810;2023-05-07T13:25:47;1.50;;;1.40;;
55465;SDS011;41329;41.594;23.810;2023-05-07T13:28:13;1.50;;;1.40;;
55465;SDS011;41329;41.594;23.810;2023-05-07T13:30:39;3.22;;;1.73;;
55465;SDS011;41329;41.594;23.810;2023-05-07T13:33:06;3.13;;;1.92;;
55465;SDS011;41329;41.594;23.810;2023-05-07T13:35:32;1.52;;;1.42;;
55465;SDS011;41329;41.594;23.810;2023-05-07T13:37:57;3.15;;;1.50;;
55465;SDS011;41329;41.594;23.810;2023-05-07T13:40:23;25.83;;;3.40;;
55465;SDS011;41329;41.594;23.810;2023-05-07T13:42:49;10.70;;;2.90;;
55465;SDS011;41329;41.594;23.810;2023-05-07T13:45:15;13.57;;;2.72;;
55465;SDS011;41329;41.594;23.810;2023-05-07T13:47:41;37.60;;;5.05;;
55465;SDS011;41329;41.594;23.810;2023-05-07T13:50:10;3.42;;;1.90;;
55465;SDS011;41329;41.594;23.810;2023-05-07T13:52:37;30.48;;;3.50;;
55465;SDS011;41329;41.594;23.810;2023-05-07T13:55:03;2.25;;;1.50;;
55465;SDS011;41329;41.594;23.810;2023-05-07T13:57:29;2.22;;;1.58;;
55465;SDS011;41329;41.594;23.810;2023-05-07T13:59:54;1.98;;;1.73;;
55465;SDS011;41329;41.594;23.810;2023-05-07T14:02:20;4.45;;;1.60;;
55465;SDS011;41329;41.594;23.810;2023-05-07T14:04:45;10.10;;;2.15;;
55465;SDS011;41329;41.594;23.810;2023-05-07T14:07:11;4.22;;;2.90;;
55465;SDS011;41329;41.594;23.810;2023-05-07T14:09:36;5.70;;;1.80;;
55465;SDS011;41329;41.594;23.810;2023-05-07T14:12:02;2.10;;;1.52;;
55465;SDS011;41329;41.594;23.810;2023-05-07T14:14:27;5.53;;;2.75;;
55465;SDS011;41329;41.594;23.810;2023-05-07T14:16:54;14.57;;;3.13;;
55465;SDS011;41329;41.594;23.810;2023-05-07T14:19:19;9.95;;;2.88;;
55465;SDS011;41329;41.594;23.810;2023-05-07T14:21:44;106.93;;;9.88;;
55465;SDS011;41329;41.594;23.810;2023-05-07T14:24:10;15.45;;;3.30;;
55465;SDS011;41329;41.594;23.810;2023-05-07T14:26:35;13.68;;;3.83;;
55465;SDS011;41329;41.594;23.810;2023-05-07T14:29:01;93.47;;;9.32;;
55465;SDS011;41329;41.594;23.810;2023-05-07T14:31:26;64.07;;;5.72;;
55465;SDS011;41329;41.594;23.810;2023-05-07T14:33:51;311.38;;;24.90;;
55465;SDS011;41329;41.594;23.810;2023-05-07T14:36:18;82.50;;;6.65;;
55465;SDS011;41329;41.594;23.810;2023-05-07T14:38:45;32.47;;;4.68;;
55465;SDS011;41329;41.594;23.810;2023-05-07T14:41:11;43.30;;;6.43;;
55465;SDS011;41329;41.594;23.810;2023-05-07T14:43:36;37.13;;;4.70;;